createdAt,value
2023-04-03T00:00:09.826Z,41.79
2023-04-03T00:03:15.962Z,41.65
2023-04-03T00:06:04.956Z,41.70
2023-04-03T00:08:52.483Z,41.66
2023-04-03T00:11:39.600Z,41.73
2023-04-03T00:14:28.684Z,41.62
2023-04-03T00:17:15.675Z,41.53
2023-04-03T00:20:04.114Z,41.65
2023-04-03T00:22:50.636Z,41.52
2023-04-03T00:25:38.066Z,41.64
2023-04-03T00:28:25.277Z,41.62
2023-04-03T00:31:16.682Z,41.52
2023-04-03T00:34:03.605Z,41.58
2023-04-03T00:36:50.696Z,41.57
2023-04-03T00:39:37.943Z,41.50
2023-04-03T00:42:25.735Z,41.39
2023-04-03T00:45:12.529Z,41.51
2023-04-03T00:48:02.721Z,41.49
2023-04-03T00:50:49.816Z,41.51
2023-04-03T00:53:59.565Z,41.54
2023-04-03T00:56:47.179Z,41.47
2023-04-03T00:59:37.219Z,41.40
2023-04-03T01:02:24.491Z,41.45
2023-04-03T01:05:12.118Z,41.38
2023-04-03T01:07:59.561Z,41.45
2023-04-03T01:10:46.530Z,41.37
2023-04-03T01:13:35.534Z,41.41
2023-04-03T01:16:23.592Z,41.37
2023-04-03T01:19:17.635Z,41.50
2023-04-03T01:22:33.426Z,41.42
2023-04-03T01:25:21.067Z,41.32
2023-04-03T01:28:11.708Z,41.45
2023-04-03T01:31:23.526Z,41.41
2023-04-03T01:34:10.786Z,41.28
2023-04-03T01:36:58.110Z,41.46
2023-04-03T01:39:45.499Z,41.49
2023-04-03T01:42:32.955Z,41.39
2023-04-03T01:45:20.080Z,41.34
2023-04-03T01:48:07.208Z,41.43
2023-04-03T01:50:55.138Z,41.42
2023-04-03T01:53:42.147Z,41.46
2023-04-03T01:56:29.471Z,41.40
2023-04-03T01:59:18.937Z,41.32
2023-04-03T02:02:05.853Z,41.25
2023-04-03T02:04:52.876Z,41.22
2023-04-03T02:07:39.583Z,41.36
2023-04-03T02:10:26.321Z,41.28
2023-04-03T02:13:13.199Z,41.15
2023-04-03T02:16:00.332Z,41.33
2023-04-03T02:18:47.334Z,41.23
2023-04-03T02:21:34.055Z,41.35
2023-04-03T02:24:20.953Z,41.34
2023-04-03T02:27:07.569Z,41.40
2023-04-03T02:29:54.783Z,41.22
2023-04-03T02:32:43.568Z,41.23
2023-04-03T02:35:30.441Z,41.35
2023-04-03T02:38:17.465Z,41.35
2023-04-03T02:41:07.637Z,41.41
2023-04-03T02:43:54.261Z,41.20
2023-04-03T02:46:41.386Z,41.26
2023-04-03T02:49:28.195Z,41.10
2023-04-03T02:52:16.136Z,41.17
2023-04-03T02:55:04.795Z,41.30
2023-04-03T02:57:52.113Z,41.19
2023-04-03T03:00:39.657Z,41.16
2023-04-03T03:03:27.173Z,41.30
2023-04-03T03:06:17.620Z,41.27
2023-04-03T03:09:04.788Z,41.16
2023-04-03T03:11:51.703Z,41.12
2023-04-03T03:14:38.411Z,41.15
2023-04-03T03:17:25.519Z,41.06
2023-04-03T03:20:15.318Z,41.00
2023-04-03T03:23:02.432Z,40.99
2023-04-03T03:25:49.337Z,41.17
2023-04-03T03:28:37.793Z,41.07
2023-04-03T03:31:25.952Z,41.11
2023-04-03T03:34:13.050Z,41.11
2023-04-03T03:36:59.598Z,41.16
2023-04-03T03:39:46.774Z,41.07
2023-04-03T03:42:33.780Z,40.93
2023-04-03T03:45:22.642Z,41.13
2023-04-03T03:48:09.648Z,41.07
2023-04-03T03:50:56.373Z,41.01
2023-04-03T03:53:45.847Z,41.16
2023-04-03T03:56:35.107Z,40.95
2023-04-03T03:59:22.138Z,41.04
2023-04-03T04:02:09.566Z,40.99
2023-04-03T04:04:56.990Z,41.04
2023-04-03T04:07:43.898Z,41.15
2023-04-03T04:10:32.161Z,42.83
2023-04-03T04:13:20.093Z,43.98
2023-04-03T04:16:08.648Z,44.47
2023-04-03T04:18:55.551Z,45.27
2023-04-03T04:21:43.492Z,46.29
2023-04-03T04:24:30.815Z,46.25
2023-04-03T04:27:17.927Z,46.47
2023-04-03T04:30:06.044Z,46.22
2023-04-03T04:32:53.358Z,46.12
2023-04-03T04:35:42.945Z,46.25
2023-04-03T04:38:30.539Z,46.44
2023-04-03T04:41:18.952Z,46.34
2023-04-03T04:44:05.655Z,46.46
2023-04-03T04:46:52.975Z,46.53
2023-04-03T04:49:41.219Z,46.56
2023-04-03T04:52:28.470Z,46.54
2023-04-03T04:55:15.256Z,46.76
2023-04-03T04:58:02.464Z,47.80
2023-04-03T05:00:49.479Z,48.69
2023-04-03T05:03:37.232Z,49.24
2023-04-03T05:06:25.055Z,49.22
2023-04-03T05:09:12.498Z,49.24
2023-04-03T05:11:59.696Z,49.17
2023-04-03T05:14:48.256Z,49.02
2023-04-03T05:17:35.388Z,48.79
2023-04-03T05:20:22.611Z,48.40
2023-04-03T05:23:12.416Z,48.03
2023-04-03T05:25:59.572Z,47.88
2023-04-03T05:28:46.926Z,47.64
2023-04-03T05:31:34.386Z,47.26
2023-04-03T05:34:21.167Z,47.16
2023-04-03T05:37:08.591Z,46.93
2023-04-03T05:39:55.697Z,46.60
2023-04-03T05:42:43.653Z,46.31
2023-04-03T05:45:31.174Z,46.14
2023-04-03T05:48:17.973Z,46.02
2023-04-03T05:51:07.459Z,45.80
2023-04-03T05:54:02.138Z,45.62
2023-04-03T05:56:51.387Z,45.38
2023-04-03T05:59:39.466Z,45.17
2023-04-03T06:02:27.429Z,44.86
2023-04-03T06:05:15.670Z,44.78
2023-04-03T06:08:02.961Z,44.73
2023-04-03T06:10:52.505Z,44.44
2023-04-03T06:13:39.451Z,44.27
2023-04-03T06:16:26.081Z,44.08
2023-04-03T06:19:13.474Z,43.95
2023-04-03T06:22:04.189Z,43.74
2023-04-03T06:24:51.101Z,43.70
2023-04-03T06:27:38.066Z,43.57
2023-04-03T06:30:25.035Z,43.36
2023-04-03T06:33:12.184Z,42.95
2023-04-03T06:36:00.000Z,42.96
2023-04-03T06:38:47.474Z,42.98
2023-04-03T06:41:35.972Z,42.95
2023-04-03T06:44:24.481Z,42.86
2023-04-03T06:47:16.897Z,42.74
2023-04-03T06:50:04.298Z,42.61
2023-04-03T06:52:51.503Z,42.62
2023-04-03T06:55:38.500Z,42.45
2023-04-03T06:58:25.320Z,42.30
2023-04-03T07:01:14.110Z,42.27
2023-04-03T07:04:01.373Z,42.35
2023-04-03T07:06:49.137Z,42.18
2023-04-03T07:09:35.970Z,42.08
2023-04-03T07:12:23.067Z,41.98
2023-04-03T07:15:11.131Z,41.91
2023-04-03T07:17:57.870Z,41.94
2023-04-03T07:20:45.302Z,41.76
2023-04-03T07:23:32.457Z,41.91
2023-04-03T07:26:19.166Z,41.87
2023-04-03T07:29:06.122Z,41.81
2023-04-03T07:31:53.875Z,41.68
2023-04-03T07:34:41.252Z,41.59
2023-04-03T07:37:28.973Z,41.49
2023-04-03T07:40:16.202Z,41.55
2023-04-03T07:43:03.939Z,41.37
2023-04-03T07:45:51.937Z,41.39
2023-04-03T07:48:39.606Z,41.46
2023-04-03T07:51:27.892Z,41.30
2023-04-03T07:54:14.838Z,41.39
2023-04-03T07:57:02.430Z,41.27
2023-04-03T07:59:49.291Z,41.17
2023-04-03T08:02:36.339Z,41.14
2023-04-03T08:05:23.945Z,41.08
2023-04-03T08:08:18.617Z,41.05
2023-04-03T08:11:07.919Z,41.01
2023-04-03T08:13:54.923Z,41.15
2023-04-03T08:16:41.460Z,41.02
2023-04-03T08:19:28.647Z,40.81
2023-04-03T08:22:15.970Z,40.87
2023-04-03T08:25:03.090Z,40.86
2023-04-03T08:27:50.538Z,40.76
2023-04-03T08:30:37.376Z,40.63
2023-04-03T08:33:24.130Z,40.70
2023-04-03T08:36:22.965Z,40.67
2023-04-03T08:39:10.578Z,40.70
2023-04-03T08:42:02.090Z,40.67
2023-04-03T08:45:00.653Z,40.40
2023-04-03T08:47:49.821Z,40.33
2023-04-03T08:50:53.028Z,40.28
2023-04-03T08:53:44.860Z,40.28
2023-04-03T08:56:34.437Z,40.10
2023-04-03T08:59:29.144Z,39.88
2023-04-03T09:02:36.271Z,39.73
2023-04-03T09:05:44.950Z,39.81
2023-04-03T09:08:37.489Z,39.57
2023-04-03T09:11:37.731Z,39.31
2023-04-03T09:14:27.596Z,39.42
2023-04-03T09:17:22.772Z,39.44
2023-04-03T09:20:21.356Z,39.22
2023-04-03T09:23:28.070Z,39.03
2023-04-03T09:26:18.993Z,39.00
2023-04-03T09:29:10.161Z,38.74
2023-04-03T09:32:10.428Z,38.84
2023-04-03T09:35:09.658Z,38.91
2023-04-03T09:38:13.215Z,38.79
2023-04-03T09:41:26.761Z,38.81
2023-04-03T09:44:26.020Z,38.67
2023-04-03T09:47:24.761Z,38.72
2023-04-03T09:50:14.359Z,38.97
2023-04-03T09:53:08.105Z,39.29
2023-04-03T09:55:55.010Z,39.17
2023-04-03T09:58:50.415Z,39.11
2023-04-03T10:01:40.923Z,39.08
2023-04-03T10:04:39.362Z,39.03
2023-04-03T10:07:35.133Z,38.96
2023-04-03T10:10:27.238Z,38.93
2023-04-03T10:13:21.657Z,38.95
2023-04-03T10:16:18.564Z,38.80
2023-04-03T10:19:27.352Z,38.87
2023-04-03T10:22:27.959Z,38.93
2023-04-03T10:25:40.688Z,38.85
2023-04-03T10:28:56.275Z,38.91
2023-04-03T10:31:54.336Z,38.86
2023-04-03T10:34:51.734Z,38.86
2023-04-03T10:38:00.544Z,38.88
2023-04-03T10:41:04.240Z,38.93
2023-04-03T10:44:00.167Z,39.04
2023-04-03T10:47:05.821Z,38.98
2023-04-03T10:50:14.465Z,39.07
2023-04-03T10:53:37.909Z,39.05
2023-04-03T10:56:43.861Z,39.06
2023-04-03T10:59:48.041Z,39.07
2023-04-03T11:02:55.027Z,39.15
2023-04-03T11:05:51.731Z,39.13
2023-04-03T11:08:45.805Z,39.15
2023-04-03T11:11:36.459Z,39.15
2023-04-03T11:14:33.324Z,39.11
2023-04-03T11:17:20.120Z,39.02
2023-04-03T11:20:17.688Z,39.08
2023-04-03T11:23:15.656Z,39.07
2023-04-03T11:26:20.124Z,39.07
2023-04-03T11:29:34.236Z,39.10
2023-04-03T11:32:53.372Z,39.08
2023-04-03T11:35:47.260Z,39.07
2023-04-03T11:38:42.159Z,39.17
2023-04-03T11:41:32.093Z,39.10
2023-04-03T11:44:31.587Z,38.95
2023-04-03T11:47:48.059Z,39.07
2023-04-03T11:50:35.060Z,39.13
2023-04-03T11:53:38.538Z,39.02
2023-04-03T11:56:28.625Z,39.01
2023-04-03T11:59:25.369Z,38.97
2023-04-03T12:02:51.058Z,38.92
2023-04-03T12:05:40.459Z,38.88
2023-04-03T12:08:49.920Z,38.97
2023-04-03T12:11:38.147Z,38.95
2023-04-03T12:14:26.866Z,38.79
2023-04-03T12:17:24.634Z,38.77
2023-04-03T12:20:52.541Z,38.92
2023-04-03T12:23:57.680Z,39.03
2023-04-03T12:27:03.025Z,39.18
2023-04-03T12:30:05.352Z,39.20
2023-04-03T12:33:12.630Z,39.06
2023-04-03T12:36:16.118Z,39.07
2023-04-03T12:39:16.798Z,39.24
2023-04-03T12:42:19.731Z,39.16
2023-04-03T12:45:21.804Z,39.19
2023-04-03T12:48:15.882Z,39.12
2023-04-03T12:51:04.426Z,39.25
2023-04-03T12:53:54.111Z,39.10
2023-04-03T12:56:41.424Z,39.09
2023-04-03T12:59:28.847Z,36.00
2023-04-03T13:02:28.999Z,37.03
2023-04-03T13:05:21.115Z,38.08
2023-04-03T13:08:13.860Z,38.27
2023-04-03T13:11:13.184Z,38.46
2023-04-03T13:14:04.646Z,38.51
2023-04-03T13:17:00.582Z,38.57
2023-04-03T13:19:48.350Z,38.54
2023-04-03T13:22:44.647Z,38.52
2023-04-03T13:25:36.313Z,38.51
2023-04-03T13:28:26.272Z,38.74
2023-04-03T13:31:15.111Z,38.46
2023-04-03T13:34:08.007Z,38.44
2023-04-03T13:36:54.923Z,38.48
2023-04-03T13:39:42.027Z,38.47
2023-04-03T13:42:32.743Z,38.44
2023-04-03T13:45:29.364Z,38.39
2023-04-03T13:48:24.685Z,38.32
2023-04-03T13:51:12.006Z,38.46
2023-04-03T13:54:02.010Z,38.43
2023-04-03T13:56:56.296Z,38.41
2023-04-03T13:59:44.482Z,38.40
2023-04-03T14:02:35.958Z,38.35
2023-04-03T14:05:24.627Z,38.40
2023-04-03T14:08:11.568Z,38.38
2023-04-03T14:10:58.946Z,38.41
2023-04-03T14:13:47.540Z,38.48
2023-04-03T14:16:39.146Z,38.44
2023-04-03T14:19:36.463Z,38.39
2023-04-03T14:22:29.937Z,38.58
2023-04-03T14:25:17.979Z,38.45
2023-04-03T14:28:18.820Z,38.56
2023-04-03T14:31:06.244Z,38.47
2023-04-03T14:33:53.279Z,38.25
2023-04-03T14:36:42.544Z,38.06
2023-04-03T14:39:31.400Z,37.92
2023-04-03T14:42:24.346Z,38.08
2023-04-03T14:45:13.616Z,38.19
2023-04-03T14:48:01.108Z,38.26
2023-04-03T14:51:04.684Z,38.27
2023-04-03T14:53:52.989Z,38.32
2023-04-03T14:56:39.807Z,38.26
2023-04-03T14:59:28.347Z,38.13
2023-04-03T15:02:32.002Z,38.07
2023-04-03T15:05:20.704Z,38.06
2023-04-03T15:08:25.857Z,38.10
2023-04-03T15:11:13.815Z,37.90
2023-04-03T15:14:00.758Z,37.98
2023-04-03T15:16:47.977Z,37.92
2023-04-03T15:19:39.424Z,37.84
2023-04-03T15:22:26.561Z,37.77
2023-04-03T15:25:13.996Z,37.74
2023-04-03T15:28:01.223Z,37.62
2023-04-03T15:30:48.128Z,37.71
2023-04-03T15:33:36.077Z,37.68
2023-04-03T15:39:17.608Z,37.59
2023-04-03T15:42:07.293Z,37.49
2023-04-03T15:44:54.505Z,37.55
2023-04-03T15:47:41.730Z,37.74
2023-04-03T15:50:29.449Z,37.73
2023-04-03T15:53:16.237Z,37.95
2023-04-03T15:56:02.907Z,38.08
2023-04-03T15:58:49.862Z,38.21
2023-04-03T16:01:38.022Z,38.36
2023-04-03T16:04:25.535Z,38.41
2023-04-03T16:07:12.214Z,38.51
2023-04-03T16:09:59.151Z,38.56
2023-04-03T16:12:46.678Z,38.56
2023-04-03T16:15:36.296Z,38.68
2023-04-03T16:18:23.483Z,38.79
2023-04-03T16:21:10.496Z,38.84
2023-04-03T16:23:59.555Z,38.78
2023-04-03T16:26:46.148Z,38.95
2023-04-03T16:29:32.778Z,39.06
2023-04-03T16:32:19.378Z,39.01
2023-04-03T16:35:07.191Z,39.15
2023-04-03T16:37:53.703Z,39.23
2023-04-03T16:40:40.807Z,39.20
2023-04-03T16:43:28.188Z,39.18
2023-04-03T16:46:16.570Z,39.22
2023-04-03T16:49:03.723Z,39.31
2023-04-03T16:51:50.940Z,39.35
2023-04-03T16:54:37.544Z,39.33
2023-04-03T16:57:25.963Z,39.34
2023-04-03T17:00:13.759Z,39.46
2023-04-03T17:03:00.592Z,39.42
2023-04-03T17:05:50.864Z,39.29
2023-04-03T17:08:38.161Z,39.14
2023-04-03T17:11:24.834Z,39.09
2023-04-03T17:14:11.885Z,39.07
2023-04-03T17:16:59.260Z,39.03
2023-04-03T17:19:46.535Z,38.94
2023-04-03T17:22:33.566Z,38.96
2023-04-03T17:25:20.872Z,38.93
2023-04-03T17:28:07.680Z,38.81
2023-04-03T17:30:59.800Z,38.76
2023-04-03T17:33:48.391Z,38.75
2023-04-03T17:36:35.516Z,38.61
2023-04-03T17:39:22.810Z,38.57
2023-04-03T17:42:09.732Z,38.67
2023-04-03T17:44:56.634Z,38.62
2023-04-03T17:47:43.362Z,38.54
2023-04-03T17:50:31.069Z,38.53
2023-04-03T17:53:18.216Z,38.61
2023-04-03T17:56:10.165Z,38.60
2023-04-03T17:58:58.651Z,38.54
2023-04-03T18:01:47.832Z,38.59
2023-04-03T18:04:34.662Z,38.60
2023-04-03T18:07:21.919Z,38.56
2023-04-03T18:10:09.969Z,38.41
2023-04-03T18:12:57.446Z,38.56
2023-04-03T18:15:46.024Z,38.48
2023-04-03T18:18:33.438Z,38.47
2023-04-03T18:21:20.544Z,38.49
2023-04-03T18:24:13.813Z,38.39
2023-04-03T18:27:06.972Z,38.43
2023-04-03T18:29:58.289Z,38.30
2023-04-03T18:32:45.250Z,38.26
2023-04-03T18:35:34.669Z,38.39
2023-04-03T18:38:21.575Z,38.30
2023-04-03T18:41:09.725Z,38.26
2023-04-03T18:44:00.060Z,38.40
2023-04-03T18:46:47.441Z,38.45
2023-04-03T18:49:37.957Z,38.27
2023-04-03T18:52:27.944Z,38.36
2023-04-03T18:55:17.098Z,38.40
2023-04-03T18:58:04.194Z,38.28
2023-04-03T19:00:50.941Z,38.38
2023-04-03T19:03:38.547Z,38.40
2023-04-03T19:06:25.874Z,38.44
2023-04-03T19:09:13.226Z,38.34
2023-04-03T19:12:02.063Z,38.30
2023-04-03T19:14:48.764Z,38.36
2023-04-03T19:17:35.747Z,38.37
2023-04-03T19:20:22.878Z,38.30
2023-04-03T19:23:10.564Z,38.37
2023-04-03T19:26:02.908Z,38.44
2023-04-03T19:28:51.029Z,38.34
2023-04-03T19:31:38.942Z,38.56
2023-04-03T19:34:25.967Z,38.43
2023-04-03T19:37:14.414Z,38.47
2023-04-03T19:40:01.245Z,38.44
2023-04-03T19:42:48.752Z,38.53
2023-04-03T19:45:35.872Z,38.52
2023-04-03T19:48:23.396Z,38.52
2023-04-03T19:51:10.828Z,38.56
2023-04-03T19:53:57.780Z,38.61
2023-04-03T19:56:44.862Z,38.52
2023-04-03T19:59:32.434Z,38.42
2023-04-03T20:02:21.550Z,38.61
2023-04-03T20:05:08.675Z,38.59
2023-04-03T20:07:56.192Z,38.61
2023-04-03T20:10:43.040Z,38.47
2023-04-03T20:13:30.398Z,38.72
2023-04-03T20:16:18.315Z,38.70
2023-04-03T20:19:06.733Z,38.59
2023-04-03T20:21:54.256Z,38.63
2023-04-03T20:24:41.835Z,38.68
2023-04-03T20:27:29.516Z,38.64
2023-04-03T20:30:16.707Z,38.60
2023-04-03T20:33:04.758Z,38.70
2023-04-03T20:35:53.754Z,38.76
2023-04-03T20:38:40.900Z,38.73
2023-04-03T20:41:27.671Z,38.64
2023-04-03T20:44:17.852Z,38.76
2023-04-03T20:47:04.814Z,38.63
2023-04-03T20:49:53.927Z,38.66
2023-04-03T20:52:41.043Z,38.70
2023-04-03T20:55:28.579Z,38.74
2023-04-03T20:58:15.688Z,38.55
2023-04-03T21:01:02.665Z,38.69
2023-04-03T21:03:54.917Z,38.71
2023-04-03T21:07:19.651Z,38.69
2023-04-03T21:10:44.036Z,38.81
2023-04-03T21:14:08.659Z,38.68
2023-04-03T21:16:55.521Z,38.67
2023-04-03T21:19:48.920Z,38.70
2023-04-03T21:22:43.239Z,38.67
2023-04-03T21:25:31.039Z,38.75
2023-04-03T21:28:19.183Z,38.62
2023-04-03T21:31:06.258Z,38.76
2023-04-03T21:33:53.325Z,38.81
2023-04-03T21:36:41.181Z,38.66
2023-04-03T21:39:28.591Z,38.79
2023-04-03T21:42:15.596Z,38.67
2023-04-03T21:45:02.502Z,38.70
2023-04-03T21:47:49.818Z,38.93
2023-04-03T21:50:37.257Z,38.88
2023-04-03T21:53:24.478Z,38.86
2023-04-03T21:56:11.488Z,38.68
2023-04-03T21:59:01.504Z,38.72
2023-04-03T22:01:48.764Z,38.63
2023-04-03T22:04:35.505Z,38.84
2023-04-03T22:07:22.110Z,38.76
2023-04-03T22:10:09.025Z,38.84
2023-04-03T22:12:55.814Z,38.74
2023-04-03T22:15:44.037Z,38.91
2023-04-03T22:18:31.725Z,38.85
2023-04-03T22:21:18.958Z,38.72
2023-04-03T22:24:06.374Z,38.66
2023-04-03T22:26:53.455Z,38.72
2023-04-03T22:29:40.461Z,38.82
2023-04-03T22:32:27.426Z,38.81
2023-04-03T22:35:14.941Z,38.62
2023-04-03T22:38:02.600Z,38.85
2023-04-03T22:40:59.579Z,38.66
2023-04-03T22:43:46.427Z,38.62
2023-04-03T22:46:33.183Z,38.88
2023-04-03T22:49:19.900Z,38.74
2023-04-03T22:52:06.959Z,38.71
2023-04-03T22:54:53.468Z,38.70
2023-04-03T22:57:40.132Z,38.80
2023-04-03T23:00:28.189Z,38.74
2023-04-03T23:03:15.532Z,38.67
2023-04-03T23:06:03.554Z,38.68
2023-04-03T23:08:50.974Z,38.76
2023-04-03T23:11:38.116Z,38.97
2023-04-03T23:14:24.744Z,38.84
2023-04-03T23:17:11.741Z,38.89
2023-04-03T23:19:59.270Z,38.78
2023-04-03T23:22:45.875Z,38.85
2023-04-03T23:25:32.964Z,38.82
2023-04-03T23:28:19.999Z,38.68
2023-04-03T23:31:07.962Z,38.67
2023-04-03T23:33:54.865Z,38.75
2023-04-03T23:36:41.782Z,38.90
2023-04-03T23:39:28.792Z,38.83
2023-04-03T23:42:15.893Z,38.80
2023-04-03T23:45:02.825Z,38.85
2023-04-03T23:47:49.462Z,38.76
2023-04-03T23:50:37.474Z,38.78
2023-04-03T23:53:24.697Z,38.81
2023-04-03T23:56:13.263Z,38.85
2023-04-03T23:59:00.484Z,39.03
